CheckWX is a tool to help pilots better visualize weather data.  It is not intended as a substitute for an official pre-flight weather briefing.

05:42:05 UTC

KASH METAR
Boire Field Airport
Nashua, New Hampshire, USA
Current

46 mins ago

KASH 200456Z AUTO 00000KT 10SM CLR M11/M17 A3055 RMK AO2 SLP359 T11111167 410111111 FZRANO $
Observed
Feb-20 @ 04:56 UTC
Visibility
16,093 meters
Flight Rules
VFR
Cloud Levels
  • Clear skies
Temperature
-11°C / 12°F
Dewpoint
-17°C / 1°F
Humidity
62%
Altimeter
30.55" Hg
Pressure
1035.9 hPa
Previous

2 hours ago

KASH 200356Z AUTO 27004KT 10SM CLR M08/M15 A3055 RMK AO2 SLP358 T10831150 FZRANO $
Observed
Feb-20 @ 03:56 UTC
Wind
  • 270° at 4 KTS
Visibility
16,093 meters
Flight Rules
VFR
Cloud Levels
  • Clear skies
Temperature
-8°C / 18°F
Dewpoint
-15°C / 5°F
Humidity
58%
Altimeter
30.55" Hg
Pressure
1035.8 hPa
Previous

3 hours ago

KASH 200256Z AUTO 26003KT 10SM CLR M10/M15 A3055 RMK AO2 SLP358 T11001150 51016 FZRANO $
Observed
Feb-20 @ 02:56 UTC
Wind
  • 260° at 3 KTS
Visibility
16,093 meters
Flight Rules
VFR
Cloud Levels
  • Clear skies
Temperature
-10°C / 14°F
Dewpoint
-15°C / 5°F
Humidity
67%
Altimeter
30.55" Hg
Pressure
1035.8 hPa